Time;durP1;ratioP1;P1;durP2;ratioP2;P2;SDS_P1;SDS_P2;PMS_P1;PMS_P2;Temp;Humidity;BMP_temperature;BMP_pressure;BME280_temperature;BME280_humidity;BME280_pressure;Samples;Min_cycle;Max_cycle;Signal;HPM_P1;HPM_P2
2023/03/29 00:01:05;;;;;;;2.87;1.53;;;10.10;99.90;;;;;;5046881;28;20219;-34
2023/03/29 00:03:35;;;;;;;3.33;1.60;;;10.10;99.90;;;;;;5047735;28;20587;-34
2023/03/29 00:06:03;;;;;;;3.20;1.47;;;10.10;99.90;;;;;;5046159;28;20274;-34
2023/03/29 00:08:32;;;;;;;4.20;1.50;;;10.10;99.90;;;;;;5029978;28;20210;-34
2023/03/29 00:11:00;;;;;;;2.20;1.30;;;10.20;99.90;;;;;;5047736;28;20255;-33
2023/03/29 00:13:28;;;;;;;5.53;1.60;;;10.20;99.90;;;;;;5045963;28;20200;-34
2023/03/29 00:15:55;;;;;;;2.73;1.33;;;10.20;99.90;;;;;;5046136;28;20287;-33
2023/03/29 00:18:22;;;;;;;2.00;1.50;;;10.20;99.90;;;;;;5047169;28;20776;-34
2023/03/29 00:20:59;;;;;;;1.97;1.30;;;10.20;99.90;;;;;;5045491;28;20238;-34
2023/03/29 00:23:31;;;;;;;2.23;1.53;;;10.20;99.90;;;;;;5047299;28;20286;-34
2023/03/29 00:26:06;;;;;;;3.23;1.87;;;10.20;99.90;;;;;;5045370;28;20192;-34
2023/03/29 00:28:34;;;;;;;3.13;1.70;;;10.20;99.90;;;;;;5047334;28;20299;-34
2023/03/29 00:31:09;;;;;;;3.37;1.60;;;10.20;99.90;;;;;;5045516;28;20234;-34
2023/03/29 00:33:37;;;;;;;4.30;1.67;;;10.20;99.90;;;;;;5045787;28;20211;-33
2023/03/29 00:36:09;;;;;;;5.33;1.93;;;10.20;99.90;;;;;;5045627;28;20219;-33
2023/03/29 00:38:39;;;;;;;3.67;1.90;;;10.20;99.90;;;;;;5045262;28;20238;-33
2023/03/29 00:41:10;;;;;;;4.87;2.17;;;10.20;99.90;;;;;;5046743;28;20282;-34
2023/03/29 00:43:52;;;;;;;5.43;1.80;;;10.20;99.90;;;;;;5045489;28;20224;-34
2023/03/29 00:46:21;;;;;;;3.73;1.80;;;10.20;99.90;;;;;;5029251;28;20779;-34
2023/03/29 00:48:55;;;;;;;3.60;1.70;;;10.20;99.90;;;;;;5028958;28;20295;-34
2023/03/29 00:51:28;;;;;;;2.40;1.63;;;10.20;99.90;;;;;;5045133;28;20714;-34
2023/03/29 00:53:59;;;;;;;3.37;1.80;;;10.20;99.90;;;;;;5045290;28;20315;-34
2023/03/29 00:56:37;;;;;;;2.50;1.70;;;10.20;99.90;;;;;;5045195;28;20242;-33
2023/03/29 00:59:12;;;;;;;3.10;1.73;;;10.20;99.90;;;;;;5044861;28;20660;-33
2023/03/29 01:01:49;;;;;;;2.77;1.50;;;10.20;99.90;;;;;;5044742;28;20227;-33
2023/03/29 01:04:41;;;;;;;4.27;1.60;;;10.20;99.90;;;;;;5039530;28;20208;-33
2023/03/29 01:07:52;;;;;;;3.03;1.60;;;10.30;99.90;;;;;;5033402;28;20217;-34
2023/03/29 01:10:40;;;;;;;3.33;1.80;;;10.20;99.90;;;;;;5034522;28;20224;-34
2023/03/29 01:13:19;;;;;;;3.13;1.73;;;10.30;99.90;;;;;;5045717;28;20212;-34
2023/03/29 01:15:52;;;;;;;4.10;2.10;;;10.30;99.90;;;;;;5035322;28;20209;-34
2023/03/29 01:18:21;;;;;;;5.50;1.93;;;10.30;99.90;;;;;;5043651;28;20216;-34
2023/03/29 01:21:03;;;;;;;3.67;1.90;;;10.30;99.90;;;;;;5045990;28;20291;-34
2023/03/29 01:23:49;;;;;;;4.60;2.00;;;10.30;99.90;;;;;;5044591;28;20207;-33
2023/03/29 01:26:20;;;;;;;6.50;1.90;;;10.30;99.90;;;;;;5046191;28;20305;-34
2023/03/29 01:28:57;;;;;;;5.30;1.90;;;10.30;99.90;;;;;;5044977;28;20285;-34
2023/03/29 01:31:31;;;;;;;3.07;1.60;;;10.30;99.90;;;;;;5045238;28;20227;-34
2023/03/29 01:34:20;;;;;;;9.53;2.50;;;10.30;99.90;;;;;;5045361;28;20202;-33
2023/03/29 01:37:11;;;;;;;2.30;1.70;;;10.40;99.90;;;;;;5046095;28;20299;-34
2023/03/29 01:39:41;;;;;;;2.47;1.80;;;10.30;99.90;;;;;;5046167;28;20204;-33
2023/03/29 01:42:17;;;;;;;3.67;1.80;;;10.30;99.90;;;;;;5046105;28;20231;-33
2023/03/29 01:45:25;;;;;;;2.83;1.80;;;10.30;99.90;;;;;;5044687;28;20303;-33
2023/03/29 01:48:01;;;;;;;3.00;1.80;;;10.30;99.90;;;;;;5045679;28;20218;-34
2023/03/29 01:50:42;;;;;;;3.40;1.83;;;10.30;99.90;;;;;;5046004;28;20208;-33
2023/03/29 01:53:17;;;;;;;3.50;1.70;;;10.40;99.90;;;;;;5045699;28;20216;-33
2023/03/29 01:55:53;;;;;;;2.73;1.50;;;10.40;99.90;;;;;;5045936;28;20970;-34
2023/03/29 01:58:37;;;;;;;3.43;1.70;;;10.40;99.90;;;;;;5045801;28;20247;-33
2023/03/29 02:01:12;;;;;;;2.43;1.60;;;10.40;99.90;;;;;;5044635;28;20282;-34
2023/03/29 02:03:48;;;;;;;5.40;1.80;;;10.40;99.90;;;;;;5045843;28;20204;-34
2023/03/29 02:06:19;;;;;;;3.03;1.90;;;10.40;99.90;;;;;;5044297;28;20682;-34
2023/03/29 02:08:54;;;;;;;3.87;2.00;;;10.40;99.90;;;;;;5044175;28;20299;-33
2023/03/29 02:11:25;;;;;;;3.80;1.80;;;10.50;99.90;;;;;;5028720;28;20610;-33
2023/03/29 02:13:55;;;;;;;2.37;1.63;;;10.50;99.90;;;;;;5045692;28;20220;-33
2023/03/29 02:16:22;;;;;;;3.10;1.60;;;10.40;99.90;;;;;;5045842;28;20197;-34
2023/03/29 02:18:58;;;;;;;3.10;1.73;;;10.50;99.90;;;;;;5045474;28;20324;-33
2023/03/29 02:21:43;;;;;;;4.27;1.97;;;10.50;99.90;;;;;;5045931;28;20204;-33
2023/03/29 02:24:16;;;;;;;4.00;1.70;;;10.50;99.90;;;;;;5047440;28;20303;-34
2023/03/29 02:26:46;;;;;;;4.33;1.87;;;10.50;99.90;;;;;;5048192;28;20193;-33
2023/03/29 02:29:16;;;;;;;3.90;1.70;;;10.50;99.90;;;;;;5031644;28;20204;-34
2023/03/29 02:31:57;;;;;;;3.07;1.53;;;10.50;99.90;;;;;;5048227;28;20247;-34
2023/03/29 02:34:27;;;;;;;2.33;1.63;;;10.50;99.90;;;;;;5047991;28;20212;-34
2023/03/29 02:37:02;;;;;;;3.53;1.53;;;10.60;99.90;;;;;;5049351;28;20200;-34
2023/03/29 02:39:32;;;;;;;4.30;2.00;;;10.60;99.90;;;;;;5049904;28;20318;-34
2023/03/29 02:42:04;;;;;;;2.87;1.50;;;10.60;99.90;;;;;;5049769;28;20621;-34
2023/03/29 02:44:39;;;;;;;4.00;1.70;;;10.60;99.90;;;;;;5049274;28;20829;-33
2023/03/29 02:47:15;;;;;;;2.87;1.80;;;10.60;99.90;;;;;;5049342;28;20221;-34
2023/03/29 02:49:45;;;;;;;3.67;1.80;;;10.60;99.90;;;;;;5047812;28;20624;-34
2023/03/29 02:52:18;;;;;;;3.73;1.73;;;10.70;99.90;;;;;;5031041;28;20209;-34
2023/03/29 02:54:53;;;;;;;3.07;1.90;;;10.70;99.90;;;;;;5048893;28;20251;-33
2023/03/29 02:57:25;;;;;;;3.03;1.97;;;10.70;99.90;;;;;;5048815;28;20262;-34
2023/03/29 02:59:57;;;;;;;4.43;2.00;;;10.70;99.90;;;;;;5048870;28;20212;-34
2023/03/29 03:02:29;;;;;;;3.43;1.87;;;10.70;99.90;;;;;;5048937;28;20210;-34
2023/03/29 03:05:01;;;;;;;4.43;1.87;;;10.70;99.90;;;;;;5048875;28;20216;-34
2023/03/29 03:07:28;;;;;;;4.53;1.87;;;10.70;99.90;;;;;;5048725;28;20558;-34
2023/03/29 03:09:56;;;;;;;6.03;1.87;;;10.70;99.90;;;;;;5048824;28;20238;-34
2023/03/29 03:12:23;;;;;;;5.50;1.77;;;10.80;99.90;;;;;;5047580;28;20628;-34
2023/03/29 03:14:50;;;;;;;4.63;2.07;;;10.80;99.90;;;;;;5049104;28;20295;-33
2023/03/29 03:17:18;;;;;;;4.70;2.10;;;10.80;99.90;;;;;;5047319;28;20574;-34
2023/03/29 03:19:45;;;;;;;5.17;2.10;;;10.80;99.90;;;;;;5030398;28;20519;-34
2023/03/29 03:22:17;;;;;;;5.20;1.90;;;10.80;99.90;;;;;;5047010;28;20311;-34
2023/03/29 03:24:50;;;;;;;4.53;1.80;;;10.80;99.90;;;;;;5048309;28;20207;-34
2023/03/29 03:27:18;;;;;;;3.47;1.80;;;10.80;99.90;;;;;;5048169;28;20236;-34
2023/03/29 03:29:46;;;;;;;2.23;1.60;;;10.90;99.90;;;;;;5048384;28;20239;-33
2023/03/29 03:32:13;;;;;;;3.70;2.03;;;10.90;99.90;;;;;;5046811;28;20269;-33
2023/03/29 03:34:45;;;;;;;3.13;1.70;;;10.90;99.90;;;;;;5029576;28;20642;-33
2023/03/29 03:37:12;;;;;;;4.17;1.70;;;10.90;99.90;;;;;;5047380;28;20200;-34
2023/03/29 03:39:42;;;;;;;4.43;2.00;;;11.00;99.90;;;;;;5029956;28;20251;-34
2023/03/29 03:42:11;;;;;;;4.30;1.90;;;11.00;99.90;;;;;;5031001;28;20632;-34
2023/03/29 03:44:38;;;;;;;3.10;1.80;;;11.00;99.90;;;;;;5046325;28;20228;-33
2023/03/29 03:47:08;;;;;;;3.93;2.07;;;11.00;99.90;;;;;;5030113;28;20702;-33
2023/03/29 03:49:35;;;;;;;3.63;1.97;;;11.00;99.90;;;;;;5047826;28;20705;-34
2023/03/29 03:52:02;;;;;;;2.00;1.57;;;11.00;99.90;;;;;;5047902;28;20517;-34
2023/03/29 03:54:34;;;;;;;4.23;1.70;;;11.00;99.90;;;;;;5047652;28;20569;-34
2023/03/29 03:57:06;;;;;;;2.87;1.80;;;11.10;99.90;;;;;;5047595;28;20672;-34
2023/03/29 03:59:37;;;;;;;4.27;1.70;;;11.10;99.90;;;;;;5046121;28;20233;-34
2023/03/29 04:02:09;;;;;;;3.33;2.10;;;11.10;99.90;;;;;;5047642;28;20196;-34
2023/03/29 04:04:41;;;;;;;5.17;1.67;;;11.10;99.90;;;;;;5047411;28;20573;-34
2023/03/29 04:07:11;;;;;;;3.27;1.70;;;11.10;99.90;;;;;;5047369;28;20203;-33
2023/03/29 04:09:39;;;;;;;7.50;2.10;;;11.10;99.90;;;;;;5047445;28;20204;-34
2023/03/29 04:12:06;;;;;;;4.37;1.90;;;11.10;99.90;;;;;;5029308;28;20196;-34
2023/03/29 04:14:39;;;;;;;3.63;2.07;;;11.10;99.90;;;;;;5047287;28;20299;-34
2023/03/29 04:17:06;;;;;;;7.00;2.00;;;11.20;99.90;;;;;;5047439;28;20220;-34
2023/03/29 04:19:36;;;;;;;5.67;2.20;;;11.20;99.90;;;;;;5047233;28;20910;-34
2023/03/29 04:22:05;;;;;;;4.60;2.13;;;11.20;99.90;;;;;;5047614;28;20211;-34
2023/03/29 04:24:33;;;;;;;4.97;2.17;;;11.10;99.90;;;;;;5046211;28;20200;-33
2023/03/29 04:27:05;;;;;;;3.50;2.03;;;11.10;99.90;;;;;;5046160;28;20212;-34
2023/03/29 04:29:36;;;;;;;4.77;2.10;;;11.10;99.90;;;;;;5046911;28;20203;-34
2023/03/29 04:32:07;;;;;;;3.47;2.10;;;11.10;99.90;;;;;;5045725;28;20208;-34
2023/03/29 04:34:36;;;;;;;4.30;2.20;;;11.10;99.90;;;;;;5047107;28;20212;-34
2023/03/29 04:37:09;;;;;;;4.07;2.37;;;11.10;99.90;;;;;;5045699;28;20224;-34
2023/03/29 04:39:39;;;;;;;3.83;1.93;;;11.10;99.90;;;;;;5029540;28;20454;-34
2023/03/29 04:42:08;;;;;;;6.40;2.23;;;11.10;99.90;;;;;;5045301;28;20192;-34
2023/03/29 04:44:39;;;;;;;3.20;2.30;;;11.10;99.90;;;;;;5046442;28;20278;-34
2023/03/29 04:47:06;;;;;;;4.70;2.20;;;11.10;99.90;;;;;;5046566;28;20208;-34
2023/03/29 04:49:33;;;;;;;6.50;2.80;;;11.10;99.90;;;;;;5045599;28;20208;-34
2023/03/29 04:52:03;;;;;;;5.77;2.27;;;11.10;99.90;;;;;;5045354;28;20204;-33
2023/03/29 04:54:33;;;;;;;4.97;2.43;;;11.10;99.90;;;;;;5045136;28;20204;-34
2023/03/29 04:57:00;;;;;;;3.83;2.40;;;11.10;99.90;;;;;;5046729;28;20608;-33
2023/03/29 04:59:32;;;;;;;5.43;2.67;;;11.10;99.90;;;;;;5046382;28;20619;-34
2023/03/29 05:02:01;;;;;;;4.43;2.60;;;11.10;99.90;;;;;;5044980;28;20192;-33
2023/03/29 05:04:29;;;;;;;7.13;2.80;;;11.10;99.90;;;;;;5044972;28;20215;-34
2023/03/29 05:06:57;;;;;;;6.77;2.43;;;11.10;99.90;;;;;;5044847;28;20192;-34
2023/03/29 05:09:26;;;;;;;4.47;2.40;;;11.10;99.90;;;;;;5046685;28;20219;-34
2023/03/29 05:11:55;;;;;;;4.47;2.60;;;11.10;99.90;;;;;;5045123;28;20206;-34
2023/03/29 05:14:30;;;;;;;3.63;2.47;;;11.10;99.90;;;;;;5044864;28;20273;-34
2023/03/29 05:16:58;;;;;;;4.73;2.30;;;11.10;99.90;;;;;;5044916;28;20291;-34
2023/03/29 05:19:27;;;;;;;3.97;2.30;;;11.10;99.90;;;;;;5044881;28;20216;-34
2023/03/29 05:21:59;;;;;;;6.10;2.50;;;11.10;99.90;;;;;;5046587;28;20220;-34
2023/03/29 05:24:29;;;;;;;8.90;2.87;;;11.10;99.90;;;;;;5029077;28;20200;-34
2023/03/29 05:27:01;;;;;;;7.20;2.60;;;11.10;99.90;;;;;;5028807;28;20227;-34
2023/03/29 05:29:28;;;;;;;7.70;2.80;;;11.10;99.90;;;;;;5044428;28;20308;-34
2023/03/29 05:31:55;;;;;;;6.33;2.63;;;11.10;99.90;;;;;;5045710;28;20215;-34
2023/03/29 05:34:32;;;;;;;4.50;2.50;;;11.10;99.90;;;;;;5046208;28;20207;-33
2023/03/29 05:37:02;;;;;;;9.17;2.77;;;11.10;99.90;;;;;;5028797;28;20314;-33
2023/03/29 05:39:32;;;;;;;7.47;2.60;;;11.20;99.90;;;;;;5045888;28;20255;-34
2023/03/29 05:42:09;;;;;;;4.87;2.30;;;11.20;99.90;;;;;;5044428;28;20686;-34
2023/03/29 05:44:39;;;;;;;3.73;2.53;;;11.20;99.90;;;;;;5046514;28;20196;-34
2023/03/29 05:47:08;;;;;;;6.60;2.40;;;11.20;99.90;;;;;;5046086;28;20770;-34
2023/03/29 05:49:38;;;;;;;5.47;2.40;;;11.20;99.90;;;;;;5028601;28;20203;-34
2023/03/29 05:52:07;;;;;;;3.30;2.20;;;11.20;99.90;;;;;;5044460;28;20306;-33
2023/03/29 05:54:35;;;;;;;3.37;2.47;;;11.30;99.90;;;;;;5044331;28;20214;-34
2023/03/29 05:57:07;;;;;;;3.37;2.20;;;11.30;99.90;;;;;;5045803;28;20204;-34
2023/03/29 05:59:34;;;;;;;3.87;2.20;;;11.30;99.90;;;;;;5048371;28;20550;-34
2023/03/29 06:02:04;;;;;;;4.20;2.40;;;11.30;99.90;;;;;;5015537;28;20287;-33
2023/03/29 06:04:35;;;;;;;5.20;2.23;;;11.30;99.90;;;;;;5050027;28;20219;-34
2023/03/29 06:07:05;;;;;;;3.30;2.50;;;11.40;99.90;;;;;;5048137;28;20239;-34
2023/03/29 06:09:33;;;;;;;6.70;2.87;;;11.40;99.90;;;;;;5048369;28;20291;-34
2023/03/29 06:12:00;;;;;;;6.97;2.47;;;11.40;99.90;;;;;;5049622;28;20208;-34
2023/03/29 06:14:28;;;;;;;5.67;2.77;;;11.40;99.90;;;;;;5049664;28;20207;-33
2023/03/29 06:16:59;;;;;;;6.93;2.80;;;11.50;99.90;;;;;;5050011;28;20896;-33
2023/03/29 06:19:26;;;;;;;6.00;3.03;;;11.50;99.90;;;;;;5049372;28;20224;-34
2023/03/29 06:21:54;;;;;;;5.57;2.90;;;11.50;99.90;;;;;;5049074;28;20246;-34
2023/03/29 06:24:21;;;;;;;4.90;2.73;;;11.50;99.90;;;;;;5047372;28;20603;-34
2023/03/29 06:26:51;;;;;;;8.40;3.47;;;11.60;99.90;;;;;;5047257;28;20228;-34
2023/03/29 06:29:20;;;;;;;6.90;3.10;;;11.60;99.90;;;;;;5048694;28;20220;-34
2023/03/29 06:31:50;;;;;;;8.13;2.40;;;11.60;99.90;;;;;;5047042;28;20232;-33
2023/03/29 06:34:22;;;;;;;7.40;2.53;;;11.60;99.90;;;;;;5047296;28;20616;-33
2023/03/29 06:36:50;;;;;;;6.30;2.50;;;11.70;99.90;;;;;;5049109;28;20218;-33
2023/03/29 06:39:17;;;;;;;4.67;2.83;;;11.70;99.90;;;;;;5049045;28;20331;-34
2023/03/29 06:41:44;;;;;;;5.70;2.67;;;11.70;99.90;;;;;;5047335;28;20708;-33
2023/03/29 06:44:11;;;;;;;5.33;2.30;;;11.70;99.90;;;;;;5049140;28;20207;-34
2023/03/29 06:46:39;;;;;;;5.63;2.80;;;11.80;99.90;;;;;;5030848;28;20235;-33
2023/03/29 06:49:06;;;;;;;4.30;2.40;;;11.80;99.90;;;;;;5048962;28;20203;-34
2023/03/29 06:51:33;;;;;;;4.87;2.83;;;11.80;99.90;;;;;;5048512;28;20776;-33
2023/03/29 06:54:01;;;;;;;4.20;2.50;;;11.90;99.90;;;;;;5047401;28;20231;-34
2023/03/29 06:56:33;;;;;;;7.70;2.93;;;11.90;99.90;;;;;;5047240;28;20748;-33
2023/03/29 06:59:00;;;;;;;7.07;3.03;;;11.90;99.90;;;;;;5048654;28;20250;-33
2023/03/29 07:01:33;;;;;;;4.90;2.20;;;12.00;99.90;;;;;;5048835;28;20279;-34
2023/03/29 07:04:03;;;;;;;7.33;2.53;;;12.00;99.90;;;;;;5047406;28;20262;-34
2023/03/29 07:06:33;;;;;;;5.63;2.57;;;12.10;99.90;;;;;;5049260;28;20216;-33
2023/03/29 07:09:05;;;;;;;6.53;3.00;;;12.10;99.90;;;;;;5048627;28;20200;-34
2023/03/29 07:11:35;;;;;;;6.10;2.73;;;12.10;99.90;;;;;;5047774;28;20291;-33
2023/03/29 07:14:02;;;;;;;5.07;2.80;;;12.20;99.90;;;;;;5047029;28;20208;-33
2023/03/29 07:16:35;;;;;;;6.23;2.30;;;12.20;99.90;;;;;;5048206;28;20204;-33
2023/03/29 07:19:03;;;;;;;5.27;2.70;;;12.20;99.90;;;;;;5047014;28;20804;-34
2023/03/29 07:21:33;;;;;;;6.43;2.60;;;12.30;99.90;;;;;;5048245;28;20277;-34
2023/03/29 07:24:09;;;;;;;5.43;2.90;;;12.30;99.90;;;;;;5046880;28;20242;-33
2023/03/29 07:26:38;;;;;;;10.83;2.90;;;12.40;99.90;;;;;;5048172;28;20675;-33
2023/03/29 07:29:19;;;;;;;6.07;2.60;;;12.50;99.90;;;;;;5046764;28;20636;-34
2023/03/29 07:31:49;;;;;;;7.83;3.20;;;12.50;99.90;;;;;;5048192;28;20216;-34
2023/03/29 07:34:16;;;;;;;7.03;2.53;;;12.50;99.90;;;;;;5030830;28;20246;-34
2023/03/29 07:36:44;;;;;;;6.10;3.00;;;12.60;99.90;;;;;;5048004;28;20689;-34
2023/03/29 07:39:14;;;;;;;4.53;2.67;;;12.60;99.90;;;;;;5046559;28;20342;-33
2023/03/29 07:41:44;;;;;;;5.17;2.50;;;12.60;99.90;;;;;;5030477;28;20216;-34
2023/03/29 07:44:11;;;;;;;7.97;2.80;;;12.70;99.90;;;;;;5046649;28;20228;-33
2023/03/29 07:46:41;;;;;;;7.17;2.63;;;12.60;99.90;;;;;;5046526;28;20200;-33
2023/03/29 07:49:09;;;;;;;6.23;2.60;;;12.70;99.90;;;;;;5046093;28;20583;-34
2023/03/29 07:51:38;;;;;;;8.83;3.00;;;12.70;99.90;;;;;;5047749;28;20650;-34
2023/03/29 07:54:07;;;;;;;5.07;2.87;;;12.70;99.90;;;;;;5046123;28;20671;-33
2023/03/29 07:56:35;;;;;;;11.03;2.97;;;12.80;99.90;;;;;;5047430;28;20236;-34
2023/03/29 07:59:02;;;;;;;3.83;2.37;;;12.80;99.90;;;;;;5045975;28;20260;-33
2023/03/29 08:01:29;;;;;;;4.37;3.00;;;12.90;99.90;;;;;;5047834;28;20252;-33
2023/03/29 08:03:57;;;;;;;9.23;3.33;;;12.90;99.90;;;;;;5046115;28;20752;-34
2023/03/29 08:06:27;;;;;;;7.10;3.03;;;12.90;99.90;;;;;;5046310;28;20575;-33
2023/03/29 08:08:54;;;;;;;10.80;4.30;;;12.90;99.90;;;;;;5013141;28;20720;-34
2023/03/29 08:11:23;;;;;;;6.20;3.03;;;12.90;99.90;;;;;;5047557;28;20285;-34
2023/03/29 08:13:52;;;;;;;5.30;2.70;;;13.00;99.90;;;;;;5047609;28;20250;-34
2023/03/29 08:16:22;;;;;;;5.27;2.87;;;13.00;99.90;;;;;;5047409;28;20205;-34
2023/03/29 08:18:54;;;;;;;6.20;2.90;;;13.00;99.90;;;;;;5045416;28;20750;-34
2023/03/29 08:21:24;;;;;;;4.73;3.00;;;13.10;99.90;;;;;;5045366;28;20300;-34
2023/03/29 08:23:52;;;;;;;6.60;3.10;;;13.10;99.90;;;;;;5045683;28;20326;-33
2023/03/29 08:26:22;;;;;;;4.37;3.10;;;13.10;99.90;;;;;;5047430;28;20597;-34
2023/03/29 08:28:49;;;;;;;5.50;2.70;;;13.20;99.90;;;;;;5045418;28;20203;-33
2023/03/29 08:31:19;;;;;;;4.13;2.73;;;13.20;99.90;;;;;;5046974;28;20262;-33
2023/03/29 08:33:46;;;;;;;5.00;2.73;;;13.30;99.90;;;;;;5046467;28;20653;-33
2023/03/29 08:36:21;;;;;;;4.57;2.87;;;13.30;99.90;;;;;;5046917;28;20258;-33
2023/03/29 08:38:51;;;;;;;4.87;2.67;;;13.30;99.90;;;;;;5045257;28;20576;-33
2023/03/29 08:41:28;;;;;;;4.77;2.93;;;13.30;99.90;;;;;;5045277;28;20223;-33
2023/03/29 08:44:19;;;;;;;5.90;3.00;;;13.40;99.90;;;;;;5047096;28;20227;-33
2023/03/29 08:47:12;;;;;;;6.93;2.93;;;13.40;99.90;;;;;;5045048;28;20215;-33
2023/03/29 08:49:43;;;;;;;7.00;3.37;;;13.50;99.90;;;;;;5045387;28;20589;-33
2023/03/29 08:52:23;;;;;;;4.80;2.80;;;13.50;99.90;;;;;;5045247;28;20207;-33
2023/03/29 08:54:56;;;;;;;5.10;2.80;;;13.50;99.90;;;;;;5044938;28;20504;-33
2023/03/29 08:57:39;;;;;;;5.70;2.97;;;13.60;99.90;;;;;;5046628;28;20306;-33
2023/03/29 09:00:22;;;;;;;4.90;2.70;;;13.60;99.90;;;;;;5046209;28;20322;-33
2023/03/29 09:02:53;;;;;;;5.13;2.67;;;13.70;99.90;;;;;;5046086;28;20204;-33
2023/03/29 09:05:32;;;;;;;4.63;3.33;;;13.70;99.90;;;;;;5045708;28;20285;-33
2023/03/29 09:08:02;;;;;;;6.97;3.13;;;13.80;99.90;;;;;;5045968;28;20200;-33
2023/03/29 09:10:43;;;;;;;5.63;3.20;;;13.90;99.90;;;;;;5045616;28;20200;-33
2023/03/29 09:13:37;;;;;;;6.10;2.73;;;13.90;99.90;;;;;;5046220;28;20360;-33
2023/03/29 09:16:33;;;;;;;5.37;2.90;;;14.00;99.90;;;;;;5044224;28;20713;-36
2023/03/29 09:19:41;;;;;;;7.43;3.10;;;14.00;99.90;;;;;;5041689;28;20217;-33
2023/03/29 09:22:52;;;;;;;5.27;2.90;;;14.10;99.90;;;;;;5045989;28;20279;-32
2023/03/29 09:25:27;;;;;;;6.67;3.00;;;14.20;99.90;;;;;;5045217;28;20203;-33
2023/03/29 09:28:08;;;;;;;6.23;3.03;;;14.30;99.90;;;;;;5045629;28;20223;-33
2023/03/29 09:30:48;;;;;;;8.60;3.50;;;14.30;99.90;;;;;;5044255;28;20212;-33
2023/03/29 09:33:53;;;;;;;7.77;3.10;;;14.40;99.90;;;;;;5045105;28;20199;-33
2023/03/29 09:36:37;;;;;;;5.67;3.37;;;14.60;99.90;;;;;;5045011;28;20273;-32
2023/03/29 09:39:12;;;;;;;4.83;2.77;;;14.60;99.90;;;;;;5045697;28;20295;-33
2023/03/29 09:41:49;;;;;;;4.40;3.17;;;14.70;99.90;;;;;;5043971;28;20765;-33
2023/03/29 09:44:28;;;;;;;5.53;3.17;;;14.80;99.90;;;;;;5044048;28;20267;-32
2023/03/29 09:47:07;;;;;;;4.73;3.10;;;14.80;99.90;;;;;;5045512;28;20211;-32
2023/03/29 09:49:39;;;;;;;6.33;3.40;;;14.90;99.90;;;;;;5045482;28;20756;-32
2023/03/29 09:52:13;;;;;;;9.47;3.63;;;14.90;99.90;;;;;;5043867;28;20205;-32
2023/03/29 09:54:41;;;;;;;6.07;3.40;;;15.00;99.90;;;;;;5044287;28;20267;-32
2023/03/29 09:57:19;;;;;;;6.57;2.90;;;15.00;99.90;;;;;;5027450;28;20302;-32
2023/03/29 09:59:49;;;;;;;6.57;3.00;;;15.00;99.90;;;;;;5043620;28;20222;-32
2023/03/29 10:02:19;;;;;;;5.17;3.10;;;15.10;99.90;;;;;;5043923;28;20635;-32
2023/03/29 10:04:54;;;;;;;6.53;3.33;;;15.20;99.90;;;;;;5045767;28;20232;-32
2023/03/29 10:07:22;;;;;;;6.37;3.00;;;15.30;99.90;;;;;;5045167;28;20590;-32
2023/03/29 10:09:56;;;;;;;5.20;2.97;;;15.30;99.90;;;;;;5045371;28;20515;-33
2023/03/29 10:12:26;;;;;;;8.63;3.30;;;15.40;99.90;;;;;;5044384;28;20223;-32
2023/03/29 10:14:56;;;;;;;6.93;2.97;;;15.50;99.90;;;;;;5044257;28;20197;-32
2023/03/29 10:17:32;;;;;;;6.20;3.03;;;15.60;99.90;;;;;;5045632;28;20293;-32
2023/03/29 10:20:02;;;;;;;5.70;2.60;;;15.70;99.90;;;;;;5045125;28;20586;-32
2023/03/29 10:22:36;;;;;;;5.13;3.20;;;15.80;99.90;;;;;;5044976;28;20618;-32
2023/03/29 10:25:17;;;;;;;5.17;2.87;;;15.90;99.90;;;;;;5043780;28;20307;-33
2023/03/29 10:27:46;;;;;;;8.93;3.03;;;16.00;99.90;;;;;;5045112;28;20210;-32
2023/03/29 10:30:24;;;;;;;5.07;2.93;;;16.10;99.90;;;;;;5044981;28;20200;-33
2023/03/29 10:32:56;;;;;;;3.90;2.67;;;16.20;99.90;;;;;;5045436;28;20270;-32
2023/03/29 10:35:40;;;;;;;3.75;2.78;;;16.30;99.90;;;;;;5045305;28;20289;-32
2023/03/29 10:38:13;;;;;;;6.33;2.83;;;16.30;99.90;;;;;;5043063;28;20752;-32
2023/03/29 10:40:51;;;;;;;6.78;2.50;;;16.40;99.90;;;;;;5043272;28;20289;-32
2023/03/29 10:43:20;;;;;;;4.60;2.87;;;16.50;99.90;;;;;;5043057;28;20208;-32
2023/03/29 10:45:50;;;;;;;5.07;3.00;;;16.60;99.90;;;;;;5047352;28;20250;-32
2023/03/29 10:48:18;;;;;;;5.40;2.60;;;16.60;99.90;;;;;;5048734;28;20201;-32
2023/03/29 10:50:51;;;;;;;4.40;2.60;;;16.70;99.90;;;;;;5048398;28;20236;-32
2023/03/29 10:53:31;;;;;;;3.43;2.40;;;16.70;99.90;;;;;;5048626;28;20208;-32
2023/03/29 10:56:21;;;;;;;4.68;2.90;;;16.70;99.90;;;;;;5045227;28;20403;-32
2023/03/29 10:59:09;;;;;;;6.13;2.90;;;17.00;99.90;;;;;;5046340;28;20652;-32
2023/03/29 11:02:13;;;;;;;4.32;2.38;;;17.10;99.90;;;;;;5043220;28;20305;-32
2023/03/29 11:04:56;;;;;;;5.23;2.80;;;17.10;99.90;;;;;;5046406;28;20705;-32
2023/03/29 11:07:51;;;;;;;7.60;3.20;;;17.20;99.90;;;;;;5046356;28;20303;-32
2023/03/29 11:10:40;;;;;;;4.03;2.77;;;17.30;99.90;;;;;;5048083;28;20266;-32
2023/03/29 11:13:22;;;;;;;8.50;2.80;;;17.30;99.90;;;;;;5047724;28;20205;-32
2023/03/29 11:15:59;;;;;;;6.28;2.58;;;17.30;99.90;;;;;;5048516;28;20208;-32
2023/03/29 11:18:44;;;;;;;4.75;2.72;;;17.40;99.90;;;;;;5048467;28;20256;-32
2023/03/29 11:21:51;;;;;;;3.30;2.30;;;17.40;99.90;;;;;;5046151;28;20213;-32
2023/03/29 11:24:36;;;;;;;5.22;2.25;;;17.50;99.90;;;;;;5047637;28;20208;-32
2023/03/29 11:27:40;;;;;;;5.53;2.17;;;17.50;99.90;;;;;;5046386;28;20283;-32
2023/03/29 11:30:45;;;;;;;3.67;1.83;;;17.60;99.90;;;;;;5047661;28;20593;-32
2023/03/29 11:33:48;;;;;;;2.85;1.98;;;17.60;99.90;;;;;;5046028;28;20767;-32
2023/03/29 11:36:26;;;;;;;3.50;1.80;;;17.70;99.90;;;;;;5045976;28;20196;-32
2023/03/29 11:39:25;;;;;;;4.25;2.00;;;17.70;99.90;;;;;;5047730;28;20262;-32
2023/03/29 11:42:05;;;;;;;3.75;1.65;;;17.80;99.90;;;;;;5047681;28;20251;-32
2023/03/29 11:44:35;;;;;;;3.88;1.73;;;17.80;99.90;;;;;;5048020;28;20192;-32
2023/03/29 11:47:35;;;;;;;6.17;1.60;;;17.80;99.90;;;;;;5048003;28;20196;-32
2023/03/29 11:50:26;;;;;;;2.30;1.20;;;17.80;99.90;;;;;;5046615;28;20208;-32
2023/03/29 11:53:10;;;;;;;2.53;1.73;;;17.80;99.90;;;;;;5046029;28;20346;-32
2023/03/29 11:55:46;;;;;;;2.90;1.80;;;17.90;99.90;;;;;;5045544;28;20239;-32
2023/03/29 11:58:34;;;;;;;5.13;1.48;;;17.90;99.90;;;;;;5046299;28;20266;-32
2023/03/29 12:01:08;;;;;;;5.28;1.65;;;17.90;99.90;;;;;;5047512;28;20601;-32
2023/03/29 12:03:49;;;;;;;3.57;1.40;;;18.00;99.90;;;;;;5046405;28;20231;-33
2023/03/29 12:06:26;;;;;;;3.90;1.50;;;18.00;99.90;;;;;;5047138;28;20195;-33
2023/03/29 12:09:01;;;;;;;1.90;1.50;;;18.00;99.90;;;;;;5045466;28;20283;-32
2023/03/29 12:11:47;;;;;;;2.85;1.40;;;18.10;99.90;;;;;;5045646;28;20682;-33
2023/03/29 12:14:36;;;;;;;2.47;1.60;;;18.10;99.90;;;;;;5045666;28;20204;-33
2023/03/29 12:17:11;;;;;;;2.97;1.50;;;18.20;99.90;;;;;;5045699;28;20242;-33
2023/03/29 12:19:58;;;;;;;4.25;1.83;;;18.20;99.90;;;;;;5047251;28;20254;-33
2023/03/29 12:22:26;;;;;;;1.90;1.52;;;18.30;99.90;;;;;;5045972;28;20220;-33
2023/03/29 12:24:56;;;;;;;5.43;2.00;;;18.30;99.90;;;;;;5047267;28;20322;-33
2023/03/29 12:27:30;;;;;;;3.42;1.98;;;18.40;99.90;;;;;;5045632;28;20208;-33
2023/03/29 12:30:00;;;;;;;2.72;1.85;;;18.40;99.90;;;;;;5047086;28;20196;-33
2023/03/29 12:32:49;;;;;;;3.47;2.08;;;18.40;99.90;;;;;;5045782;28;20242;-33
2023/03/29 12:35:34;;;;;;;3.63;2.00;;;18.30;99.90;;;;;;5045279;28;20222;-33
2023/03/29 12:38:08;;;;;;;5.87;2.43;;;18.30;99.90;;;;;;5046954;28;20647;-33
2023/03/29 12:40:46;;;;;;;3.83;1.98;;;18.30;99.90;;;;;;5046845;28;20293;-33
2023/03/29 12:43:23;;;;;;;2.25;1.77;;;18.30;99.90;;;;;;5046796;28;20188;-33
2023/03/29 12:45:59;;;;;;;3.53;1.73;;;18.30;99.90;;;;;;5046417;28;20690;-32
2023/03/29 12:48:31;;;;;;;2.60;1.98;;;18.30;99.90;;;;;;5046286;28;20192;-33
2023/03/29 12:51:02;;;;;;;4.07;2.30;;;18.40;99.90;;;;;;5046041;28;20295;-32
2023/03/29 12:53:44;;;;;;;3.08;1.98;;;18.40;99.90;;;;;;5044937;28;20200;-33
2023/03/29 12:56:20;;;;;;;3.35;2.10;;;18.50;99.90;;;;;;5046121;28;20235;-33
2023/03/29 12:58:53;;;;;;;3.95;2.10;;;18.50;99.90;;;;;;5045024;28;20279;-32
2023/03/29 13:01:35;;;;;;;3.38;2.00;;;18.60;99.90;;;;;;5046372;28;20258;-32
2023/03/29 13:04:35;;;;;;;3.70;2.03;;;18.60;99.90;;;;;;5045671;28;20721;-32
2023/03/29 13:07:02;;;;;;;3.53;2.05;;;18.70;99.90;;;;;;5044200;28;20274;-32
2023/03/29 13:09:50;;;;;;;3.63;1.93;;;18.70;99.90;;;;;;5045732;28;20200;-32
2023/03/29 13:12:27;;;;;;;4.55;1.92;;;18.70;99.90;;;;;;5043958;28;20204;-32
2023/03/29 13:15:06;;;;;;;2.63;1.90;;;18.80;99.90;;;;;;5044395;28;20208;-32
2023/03/29 13:17:50;;;;;;;5.65;2.40;;;18.80;99.90;;;;;;5045692;28;20689;-32
2023/03/29 13:20:27;;;;;;;4.35;2.35;;;18.80;99.90;;;;;;5044125;28;20705;-32
2023/03/29 13:23:18;;;;;;;5.45;2.38;;;18.90;99.90;;;;;;5044114;28;20222;-32